Terminal Aerodrome Forecast
Issued by NWS Charleston, WV

Current Version | Previous Version | Text Only | Print | Product List | Glossary Off
Versions: 1 2 3 4 5 6 7 8 9 10 11 12 13 14 15 16 17 18 19 20 21 22 23 24

000
FTUS41 KRLX 211732
TAFCRW
TAF
KCRW 211732Z 2118/2218 25006KT P6SM -SHRA VCTS BKN070CB
     FM212100 25006KT P6SM BKN040
     FM220100 VRB03KT P6SM BKN200
     FM220300 VRB03KT 3SM BR SCT200
     FM220600 00000KT 1SM BR SCT001
     FM220900 00000KT 1/2SM FG BKN001
     FM221200 00000KT 2SM BR SCT001 SCT130
     FM221300 VRB03KT P6SM SCT120
     FM221500 22007KT P6SM BKN110=

USA.gov is the U.S. government's official web portal to all federal, state and local government web resources and services.